createdAt,value
2018-07-20T00:01:54.645Z,17.90
2018-07-20T00:04:23.571Z,17.90
2018-07-20T00:06:52.422Z,17.80
2018-07-20T00:09:21.418Z,17.80
2018-07-20T00:11:50.327Z,17.80
2018-07-20T00:14:19.275Z,17.80
2018-07-20T00:16:48.162Z,17.70
2018-07-20T00:19:17.085Z,17.70
2018-07-20T00:21:46.040Z,17.70
2018-07-20T00:24:14.886Z,17.60
2018-07-20T00:26:43.825Z,17.60
2018-07-20T00:29:12.715Z,17.60
2018-07-20T00:31:43.404Z,17.60
2018-07-20T00:34:12.269Z,17.70
2018-07-20T00:36:41.189Z,17.60
2018-07-20T00:39:11.181Z,17.60
2018-07-20T00:41:40.528Z,17.60
2018-07-20T00:46:37.956Z,17.40
2018-07-20T00:49:06.823Z,17.30
2018-07-20T00:51:35.823Z,17.30
2018-07-20T00:54:04.770Z,17.30
2018-07-20T00:59:02.152Z,17.20
2018-07-20T01:01:31.079Z,17.10
2018-07-20T01:03:59.969Z,17.10
2018-07-20T01:06:29.000Z,17.10
2018-07-20T01:08:57.884Z,17.10
2018-07-20T01:11:26.804Z,17.00
2018-07-20T01:16:25.406Z,17.00
2018-07-20T01:21:22.788Z,16.90
2018-07-20T01:23:51.722Z,16.90
2018-07-20T01:26:20.644Z,16.80
2018-07-20T01:28:49.624Z,16.80
2018-07-20T01:31:18.596Z,16.80
2018-07-20T01:33:47.462Z,16.80
2018-07-20T01:36:17.111Z,16.80
2018-07-20T01:38:46.099Z,16.70
2018-07-20T01:41:15.003Z,16.70
2018-07-20T01:43:43.929Z,16.60
2018-07-20T01:46:12.819Z,16.60
2018-07-20T01:48:41.725Z,16.60
2018-07-20T01:51:10.579Z,16.50
2018-07-20T01:56:08.029Z,16.40
2018-07-20T01:58:36.911Z,16.40
2018-07-20T02:01:05.796Z,16.50
2018-07-20T02:03:34.748Z,16.50
2018-07-20T02:06:03.605Z,16.50
2018-07-20T02:08:32.589Z,16.50
2018-07-20T02:11:01.898Z,16.50
2018-07-20T02:13:30.799Z,16.50
2018-07-20T02:15:59.909Z,16.50
2018-07-20T02:20:57.284Z,16.40
2018-07-20T02:23:26.257Z,16.40
2018-07-20T02:25:55.171Z,16.30
2018-07-20T02:28:25.040Z,16.20
2018-07-20T02:30:53.921Z,16.20
2018-07-20T02:33:22.820Z,16.20
2018-07-20T02:35:52.466Z,16.20
2018-07-20T02:40:50.025Z,16.20
2018-07-20T02:43:18.928Z,16.10
2018-07-20T02:50:44.856Z,16.00
2018-07-20T02:53:13.708Z,16.00
2018-07-20T02:55:42.609Z,16.00
2018-07-20T02:58:11.531Z,15.90
2018-07-20T03:00:40.465Z,15.90
2018-07-20T03:03:09.328Z,15.90
2018-07-20T03:10:35.416Z,15.80
2018-07-20T03:13:04.320Z,15.80
2018-07-20T03:15:33.635Z,15.80
2018-07-20T03:18:02.539Z,15.70
2018-07-20T03:20:31.436Z,15.70
2018-07-20T03:23:00.379Z,15.70
2018-07-20T03:25:30.820Z,15.70
2018-07-20T03:27:59.727Z,15.60
2018-07-20T03:30:29.581Z,15.60
2018-07-20T03:32:58.621Z,15.60
2018-07-20T03:37:55.932Z,15.70
2018-07-20T03:40:24.836Z,15.70
2018-07-20T03:42:53.784Z,15.70
2018-07-20T03:45:22.686Z,15.60
2018-07-20T03:47:51.612Z,15.60
2018-07-20T03:50:20.533Z,15.50
2018-07-20T03:52:49.452Z,15.50
2018-07-20T03:55:18.352Z,15.50
2018-07-20T03:57:47.274Z,15.50
2018-07-20T04:00:16.677Z,15.50
2018-07-20T04:05:15.071Z,15.70
2018-07-20T04:07:43.992Z,15.60
2018-07-20T04:10:12.938Z,15.60
2018-07-20T04:12:41.817Z,15.60
2018-07-20T04:15:10.756Z,15.60
2018-07-20T04:17:43.639Z,15.70
2018-07-20T04:20:13.721Z,15.70
2018-07-20T04:22:42.749Z,15.80
2018-07-20T04:25:11.805Z,15.80
2018-07-20T04:27:40.845Z,15.90
2018-07-20T04:30:12.241Z,15.90
2018-07-20T04:32:41.277Z,16.00
2018-07-20T04:37:39.550Z,16.00
2018-07-20T04:40:08.456Z,16.20
2018-07-20T04:45:06.515Z,17.20
2018-07-20T04:47:35.408Z,17.60
2018-07-20T04:50:05.062Z,17.80
2018-07-20T04:52:34.077Z,18.00
2018-07-20T04:55:03.064Z,18.10
2018-07-20T04:57:32.012Z,18.20
2018-07-20T05:00:01.362Z,18.10
2018-07-20T05:02:30.260Z,18.10
2018-07-20T05:04:59.241Z,18.20
2018-07-20T05:07:28.164Z,18.40
2018-07-20T05:09:57.071Z,18.60
2018-07-20T05:12:27.009Z,18.70
2018-07-20T05:14:56.808Z,18.50
2018-07-20T05:19:54.365Z,18.40
2018-07-20T05:22:23.365Z,18.30
2018-07-20T05:24:52.306Z,18.30
2018-07-20T05:27:21.315Z,18.30
2018-07-20T05:29:50.274Z,18.40
2018-07-20T05:32:19.208Z,18.40
2018-07-20T05:34:48.157Z,18.60
2018-07-20T05:37:17.094Z,18.60
2018-07-20T05:47:11.910Z,19.00
2018-07-20T05:49:40.934Z,19.10
2018-07-20T05:52:10.653Z,19.20
2018-07-20T05:54:39.561Z,19.30
2018-07-20T05:57:08.549Z,19.30
2018-07-20T05:59:37.445Z,19.40
2018-07-20T06:02:06.528Z,19.50
2018-07-20T06:04:35.484Z,19.60
2018-07-20T06:07:04.511Z,19.70
2018-07-20T06:09:33.485Z,19.80
2018-07-20T06:12:02.389Z,19.90
2018-07-20T06:14:31.304Z,20.10
2018-07-20T06:17:00.760Z,20.20
2018-07-20T06:19:29.715Z,20.20
2018-07-20T06:24:27.036Z,20.40
2018-07-20T06:26:55.948Z,20.50
2018-07-20T06:29:24.849Z,20.60
2018-07-20T06:31:53.804Z,20.70
2018-07-20T06:34:22.667Z,20.80
2018-07-20T06:36:51.592Z,20.90
2018-07-20T06:39:20.479Z,20.80
2018-07-20T06:41:49.382Z,20.90
2018-07-20T06:44:21.742Z,20.90
2018-07-20T06:46:50.606Z,21.00
2018-07-20T06:49:19.685Z,21.00
2018-07-20T06:51:48.591Z,21.20
2018-07-20T06:54:17.570Z,21.30
2018-07-20T06:56:46.485Z,21.40
2018-07-20T06:59:15.400Z,21.50
2018-07-20T07:01:44.317Z,21.70
2018-07-20T07:04:13.224Z,21.80
2018-07-20T07:11:40.434Z,22.30
2018-07-20T07:14:09.307Z,22.40
2018-07-20T07:16:38.592Z,22.60
2018-07-20T07:19:07.518Z,22.80
2018-07-20T07:21:36.431Z,22.90
2018-07-20T07:24:05.370Z,22.90
2018-07-20T07:29:02.792Z,23.00
2018-07-20T07:31:31.693Z,23.00
2018-07-20T07:34:01.588Z,23.00
2018-07-20T07:36:30.513Z,23.20
2018-07-20T07:38:59.473Z,23.30
2018-07-20T07:41:28.431Z,23.40
2018-07-20T07:43:57.324Z,23.50
2018-07-20T07:46:26.265Z,23.70
2018-07-20T07:48:55.186Z,23.80
2018-07-20T07:51:24.127Z,24.00
2018-07-20T07:53:53.007Z,24.10
2018-07-20T07:56:21.920Z,24.20
2018-07-20T07:58:50.903Z,24.30
2018-07-20T08:01:19.852Z,24.30
2018-07-20T08:03:48.732Z,24.40
2018-07-20T08:06:17.600Z,24.40
2018-07-20T08:08:46.515Z,24.50
2018-07-20T08:11:15.389Z,24.70
2018-07-20T08:13:44.324Z,24.80
2018-07-20T08:16:13.557Z,24.90
2018-07-20T08:18:42.440Z,25.00
2018-07-20T08:21:11.684Z,25.10
2018-07-20T08:23:40.652Z,25.20
2018-07-20T08:26:09.508Z,25.30
2018-07-20T08:28:38.426Z,25.40
2018-07-20T08:31:07.448Z,25.50
2018-07-20T08:33:36.320Z,25.60
2018-07-20T08:36:05.263Z,25.70
2018-07-20T08:38:34.187Z,25.70
2018-07-20T08:41:03.163Z,25.80
2018-07-20T08:43:32.069Z,25.90
2018-07-20T08:46:00.993Z,26.00
2018-07-20T08:48:29.917Z,26.00
2018-07-20T08:53:27.284Z,26.10
2018-07-20T08:58:24.737Z,26.40
2018-07-20T09:00:53.617Z,26.50
2018-07-20T09:03:22.560Z,26.50
2018-07-20T09:05:51.480Z,26.60
2018-07-20T09:08:20.339Z,26.70
2018-07-20T09:10:49.257Z,26.70
2018-07-20T09:13:18.196Z,26.80
2018-07-20T09:15:47.141Z,27.00
2018-07-20T09:18:16.007Z,27.10
2018-07-20T09:20:45.014Z,27.20
2018-07-20T09:25:42.356Z,27.40
2018-07-20T09:28:11.606Z,27.50
2018-07-20T09:30:40.512Z,27.70
2018-07-20T09:33:09.402Z,27.80
2018-07-20T09:35:38.285Z,27.90
2018-07-20T09:38:07.224Z,28.00
2018-07-20T09:40:36.096Z,28.20
2018-07-20T09:43:05.035Z,28.30
2018-07-20T09:45:33.991Z,28.30
2018-07-20T09:48:02.895Z,28.40
2018-07-20T09:50:31.748Z,28.60
2018-07-20T09:53:00.680Z,28.80
2018-07-20T09:55:29.568Z,28.90
2018-07-20T09:57:58.484Z,29.00
2018-07-20T10:00:32.476Z,29.00
2018-07-20T10:03:01.422Z,29.10
2018-07-20T10:05:30.312Z,29.10
2018-07-20T10:07:59.236Z,29.30
2018-07-20T10:10:28.180Z,29.40
2018-07-20T10:12:57.147Z,29.50
2018-07-20T10:15:26.133Z,29.80
2018-07-20T10:17:55.020Z,29.90
2018-07-20T10:20:23.922Z,30.10
2018-07-20T10:22:52.869Z,30.20
2018-07-20T10:25:21.791Z,30.30
2018-07-20T10:27:50.705Z,30.30
2018-07-20T10:30:19.595Z,30.30
2018-07-20T10:32:48.521Z,30.30
2018-07-20T10:35:17.469Z,30.40
2018-07-20T10:37:46.340Z,30.50
2018-07-20T10:40:15.284Z,30.70
2018-07-20T10:42:44.247Z,30.90
2018-07-20T10:45:13.172Z,31.00
2018-07-20T10:47:42.090Z,31.20
2018-07-20T10:52:39.481Z,31.20
2018-07-20T10:55:08.423Z,31.40
2018-07-20T10:57:37.358Z,31.50
2018-07-20T11:00:06.341Z,31.60
2018-07-20T11:02:35.308Z,31.80
2018-07-20T11:05:04.292Z,31.90
2018-07-20T11:07:33.310Z,32.00
2018-07-20T11:10:03.232Z,32.20
2018-07-20T11:12:32.169Z,32.20
2018-07-20T11:15:01.070Z,32.30
2018-07-20T11:17:29.990Z,32.40
2018-07-20T11:19:58.869Z,32.40
2018-07-20T11:22:27.821Z,32.50
2018-07-20T11:24:56.768Z,32.50
2018-07-20T11:27:25.716Z,32.70
2018-07-20T11:29:54.669Z,32.70
2018-07-20T11:32:24.269Z,32.70
2018-07-20T11:34:53.194Z,32.80
2018-07-20T11:37:22.124Z,33.00
2018-07-20T11:39:51.075Z,33.10
2018-07-20T11:42:19.982Z,33.30
2018-07-20T11:44:48.943Z,33.40
2018-07-20T11:47:18.260Z,33.40
2018-07-20T11:49:47.193Z,33.50
2018-07-20T11:52:16.085Z,33.70
2018-07-20T11:54:45.025Z,33.70
2018-07-20T11:57:13.965Z,33.60
2018-07-20T11:59:42.913Z,33.60
2018-07-20T12:02:11.852Z,33.40
2018-07-20T12:04:40.940Z,33.40
2018-07-20T12:07:09.885Z,33.50
2018-07-20T12:09:39.192Z,33.80
2018-07-20T12:12:08.231Z,33.80
2018-07-20T12:14:37.215Z,34.00
2018-07-20T12:17:11.848Z,34.10
2018-07-20T12:19:41.200Z,33.90
2018-07-20T12:22:10.608Z,34.00
2018-07-20T12:24:39.777Z,34.10
2018-07-20T12:27:08.973Z,34.10
2018-07-20T12:29:37.868Z,34.10
2018-07-20T12:32:06.712Z,34.20
2018-07-20T12:34:37.003Z,34.30
2018-07-20T12:37:21.266Z,34.30
2018-07-20T12:39:50.160Z,34.30
2018-07-20T12:42:19.080Z,34.10
2018-07-20T12:44:54.130Z,34.10
2018-07-20T12:47:24.010Z,33.90
2018-07-20T12:49:52.912Z,33.90
2018-07-20T12:52:21.821Z,33.90
2018-07-20T12:54:56.022Z,33.90
2018-07-20T12:57:24.989Z,33.90
2018-07-20T12:59:53.967Z,33.80
2018-07-20T13:02:22.929Z,33.70
2018-07-20T13:05:02.609Z,33.40
2018-07-20T13:07:34.049Z,33.20
2018-07-20T13:10:03.000Z,33.10
2018-07-20T13:12:31.952Z,32.90
2018-07-20T13:15:00.864Z,32.90
2018-07-20T13:17:30.700Z,32.80
2018-07-20T13:19:59.565Z,32.60
2018-07-20T13:22:28.491Z,32.50
2018-07-20T13:24:57.427Z,32.40
2018-07-20T13:27:26.376Z,32.20
2018-07-20T13:29:55.346Z,32.20
2018-07-20T13:34:52.752Z,31.90
2018-07-20T13:37:21.660Z,31.80
2018-07-20T13:39:50.661Z,31.80
2018-07-20T13:42:19.583Z,31.70
2018-07-20T13:44:48.472Z,31.50
2018-07-20T13:49:46.050Z,31.20
2018-07-20T13:52:15.054Z,31.00
2018-07-20T13:54:44.040Z,30.80
2018-07-20T13:57:13.007Z,30.70
2018-07-20T13:59:41.909Z,30.70
2018-07-20T14:02:11.072Z,30.60
2018-07-20T14:04:40.616Z,30.50
2018-07-20T14:07:09.564Z,30.50
2018-07-20T14:09:38.672Z,30.50
2018-07-20T14:12:08.230Z,30.40
2018-07-20T14:14:37.108Z,30.20
2018-07-20T14:17:06.260Z,30.00
2018-07-20T14:19:35.131Z,29.90
2018-07-20T14:24:32.536Z,29.70
2018-07-20T14:27:01.472Z,29.60
2018-07-20T14:29:30.360Z,29.50
2018-07-20T14:31:59.341Z,29.50
2018-07-20T14:34:28.281Z,29.40
2018-07-20T14:36:57.184Z,29.30
2018-07-20T14:41:54.592Z,29.00
2018-07-20T14:44:23.472Z,28.90
2018-07-20T14:46:52.406Z,28.90
2018-07-20T14:49:21.348Z,28.80
2018-07-20T14:51:50.259Z,28.70
2018-07-20T14:54:19.192Z,28.70
2018-07-20T14:59:16.472Z,28.50
2018-07-20T15:01:45.427Z,28.50
2018-07-20T15:04:14.308Z,28.50
2018-07-20T15:06:43.256Z,28.40
2018-07-20T15:09:13.248Z,28.40
2018-07-20T15:11:42.372Z,28.40
2018-07-20T15:14:11.511Z,28.30
2018-07-20T15:16:40.420Z,28.30
2018-07-20T15:19:09.352Z,28.20
2018-07-20T15:21:38.777Z,28.00
2018-07-20T15:24:08.452Z,28.00
2018-07-20T15:26:37.337Z,28.00
2018-07-20T15:29:06.356Z,28.00
2018-07-20T15:31:35.268Z,28.10
2018-07-20T15:34:04.854Z,28.10
2018-07-20T15:36:33.895Z,28.10
2018-07-20T15:39:02.912Z,28.20
2018-07-20T15:44:00.286Z,28.20
2018-07-20T15:48:57.678Z,27.80
2018-07-20T15:51:55.486Z,27.80
2018-07-20T15:53:55.610Z,27.80
2018-07-20T15:56:24.499Z,27.80
2018-07-20T15:58:53.408Z,27.90
2018-07-20T16:01:22.268Z,27.90
2018-07-20T16:03:51.191Z,27.90
2018-07-20T16:06:25.408Z,27.90
2018-07-20T16:08:54.734Z,27.90
2018-07-20T16:11:23.905Z,27.90
2018-07-20T16:13:52.833Z,27.90
2018-07-20T16:16:21.776Z,27.80
2018-07-20T16:18:50.708Z,27.70
2018-07-20T16:21:19.640Z,27.60
2018-07-20T16:23:48.552Z,27.70
2018-07-20T16:26:17.506Z,27.70
2018-07-20T16:28:46.472Z,27.70
2018-07-20T16:31:16.236Z,27.50
2018-07-20T16:33:45.132Z,27.40
2018-07-20T16:36:13.976Z,27.40
2018-07-20T16:38:42.969Z,27.30
2018-07-20T16:41:11.884Z,27.30
2018-07-20T16:43:41.632Z,27.30
2018-07-20T16:46:10.583Z,27.20
2018-07-20T16:48:39.564Z,27.00
2018-07-20T16:51:08.549Z,26.80
2018-07-20T16:53:38.031Z,26.60
2018-07-20T16:56:06.918Z,26.60
2018-07-20T16:58:35.918Z,26.70
2018-07-20T17:01:04.819Z,26.70
2018-07-20T17:03:33.735Z,26.80
2018-07-20T17:06:02.600Z,26.80
2018-07-20T17:08:31.498Z,26.90
2018-07-20T17:11:00.416Z,27.00
2018-07-20T17:13:30.049Z,27.10
2018-07-20T17:15:58.940Z,27.30
2018-07-20T17:18:27.871Z,27.20
2018-07-20T17:20:56.870Z,27.00
2018-07-20T17:23:25.744Z,27.00
2018-07-20T17:25:54.628Z,27.10
2018-07-20T17:28:23.512Z,27.20
2018-07-20T17:30:52.384Z,26.90
2018-07-20T17:33:21.280Z,26.70
2018-07-20T17:35:50.187Z,26.60
2018-07-20T17:38:19.237Z,26.90
2018-07-20T17:40:48.507Z,27.70
2018-07-20T17:43:17.480Z,28.60
2018-07-20T17:48:14.916Z,29.90
2018-07-20T17:50:43.969Z,30.60
2018-07-20T17:53:12.866Z,30.70
2018-07-20T17:55:41.867Z,30.90
2018-07-20T17:58:10.773Z,30.70
2018-07-20T18:00:39.808Z,30.40
2018-07-20T18:03:08.833Z,30.20
2018-07-20T18:05:38.528Z,29.90
2018-07-20T18:08:07.453Z,29.40
2018-07-20T18:10:36.355Z,29.40
2018-07-20T18:13:05.303Z,28.70
2018-07-20T18:18:02.740Z,27.00
2018-07-20T18:20:31.644Z,26.20
2018-07-20T18:23:00.609Z,25.70
2018-07-20T18:25:30.120Z,25.50
2018-07-20T18:27:59.091Z,25.20
2018-07-20T18:30:27.957Z,25.10
2018-07-20T18:32:56.881Z,24.90
2018-07-20T18:35:25.772Z,24.80
2018-07-20T18:37:54.696Z,24.70
2018-07-20T18:40:24.792Z,24.50
2018-07-20T18:42:53.713Z,24.40
2018-07-20T18:45:22.596Z,24.30
2018-07-20T18:47:51.661Z,24.20
2018-07-20T18:50:20.617Z,24.10
2018-07-20T18:52:49.704Z,24.00
2018-07-20T18:57:47.641Z,24.00
2018-07-20T19:00:16.555Z,23.90
2018-07-20T19:02:45.537Z,23.90
2018-07-20T19:05:15.512Z,23.80
2018-07-20T19:07:44.530Z,23.80
2018-07-20T19:10:13.473Z,23.80
2018-07-20T19:15:10.912Z,23.70
2018-07-20T19:17:40.547Z,23.70
2018-07-20T19:25:06.531Z,23.50
2018-07-20T19:27:35.701Z,23.50
2018-07-20T19:32:33.242Z,23.20
2018-07-20T19:35:03.568Z,23.20
2018-07-20T19:37:32.481Z,23.10
2018-07-20T19:40:01.743Z,23.00
2018-07-20T19:42:31.143Z,23.00
2018-07-20T19:45:00.096Z,22.90
2018-07-20T19:47:29.040Z,22.80
2018-07-20T19:49:57.962Z,22.70
2018-07-20T19:52:26.855Z,22.60
2018-07-20T19:54:55.760Z,22.50
2018-07-20T19:57:24.892Z,22.50
2018-07-20T19:59:53.889Z,22.40
2018-07-20T20:02:22.863Z,22.30
2018-07-20T20:04:51.785Z,22.20
2018-07-20T20:07:20.869Z,22.10
2018-07-20T20:09:49.842Z,22.00
2018-07-20T20:12:18.730Z,22.00
2018-07-20T20:14:47.869Z,22.00
2018-07-20T20:17:16.812Z,21.90
2018-07-20T20:19:45.756Z,21.90
2018-07-20T20:22:14.892Z,21.90
2018-07-20T20:24:44.084Z,21.90
2018-07-20T20:29:41.642Z,21.60
2018-07-20T20:32:10.606Z,21.60
2018-07-20T20:34:39.750Z,21.60
2018-07-20T20:37:08.620Z,21.50
2018-07-20T20:39:37.529Z,21.40
2018-07-20T20:42:06.554Z,21.30
2018-07-20T20:44:35.447Z,21.20
2018-07-20T20:47:04.556Z,21.00
2018-07-20T20:49:33.497Z,20.80
2018-07-20T20:54:30.949Z,20.80
2018-07-20T20:56:59.948Z,20.70
2018-07-20T20:59:28.832Z,20.70
2018-07-20T21:01:57.729Z,20.70
2018-07-20T21:04:26.703Z,20.70
2018-07-20T21:06:56.263Z,20.70
2018-07-20T21:09:25.204Z,20.60
2018-07-20T21:11:54.167Z,20.50
2018-07-20T21:14:23.389Z,20.50
2018-07-20T21:16:52.285Z,20.40
2018-07-20T21:19:21.200Z,20.40
2018-07-20T21:21:50.187Z,20.40
2018-07-20T21:24:19.076Z,20.30
2018-07-20T21:26:48.013Z,20.20
2018-07-20T21:29:16.942Z,20.30
2018-07-20T21:31:45.852Z,20.30
2018-07-20T21:34:14.712Z,20.20
2018-07-20T21:36:43.712Z,20.20
2018-07-20T21:39:14.028Z,20.10
2018-07-20T21:41:43.670Z,20.10
2018-07-20T21:44:12.851Z,20.00
2018-07-20T21:46:41.768Z,20.00
2018-07-20T21:54:07.702Z,19.90
2018-07-20T21:56:36.619Z,19.90
2018-07-20T22:01:33.969Z,19.80
2018-07-20T22:04:03.779Z,19.80
2018-07-20T22:06:32.801Z,19.80
2018-07-20T22:11:30.234Z,19.70
2018-07-20T22:13:59.106Z,19.70
2018-07-20T22:16:28.544Z,19.60
2018-07-20T22:18:57.401Z,19.50
2018-07-20T22:21:26.322Z,19.50
2018-07-20T22:23:55.236Z,19.40
2018-07-20T22:26:24.128Z,19.30
2018-07-20T22:31:21.473Z,19.20
2018-07-20T22:33:50.360Z,19.10
2018-07-20T22:36:19.224Z,19.10
2018-07-20T22:38:48.137Z,19.10
2018-07-20T22:41:16.989Z,19.10
2018-07-20T22:43:45.937Z,19.00
2018-07-20T22:46:14.800Z,18.90
2018-07-20T22:48:43.736Z,18.90
2018-07-20T22:51:12.663Z,18.90
2018-07-20T22:53:41.561Z,19.00
2018-07-20T22:56:11.111Z,19.00
2018-07-20T22:58:40.005Z,19.00
2018-07-20T23:03:37.365Z,18.90
2018-07-20T23:06:06.287Z,18.90
2018-07-20T23:08:35.996Z,18.90
2018-07-20T23:11:04.971Z,18.90
2018-07-20T23:13:33.848Z,18.80
2018-07-20T23:16:02.739Z,18.70
2018-07-20T23:18:31.592Z,18.60
2018-07-20T23:21:01.058Z,18.60
2018-07-20T23:23:29.937Z,18.50
2018-07-20T23:28:27.284Z,18.50
2018-07-20T23:30:56.253Z,18.40
2018-07-20T23:33:25.197Z,18.50
2018-07-20T23:38:22.597Z,18.50
2018-07-20T23:40:51.492Z,18.50
2018-07-20T23:43:20.555Z,18.40
2018-07-20T23:50:46.409Z,18.30
2018-07-20T23:55:43.759Z,18.30
2018-07-20T23:58:12.635Z,18.30
